Time;durP1;ratioP1;P1;durP2;ratioP2;P2;SDS_P1;SDS_P2;PMS_P1;PMS_P2;Temp;Humidity;BMP_temperature;BMP_pressure;BME280_temperature;BME280_humidity;BME280_pressure;Samples;Min_cycle;Max_cycle;Signal;HPM_P1;HPM_P2
2021/08/08 00:02:14;;;;;;;5.95;1.10;;;;;;;17.06;80.43;99113.66;3561381;40;19953;-77
2021/08/08 00:04:43;;;;;;;2.90;1.20;;;;;;;17.10;80.14;99115.13;3564852;40;20103;-77
2021/08/08 00:07:11;;;;;;;4.07;1.50;;;;;;;17.06;80.19;99100.47;3556976;40;20437;-77
2021/08/08 00:09:39;;;;;;;2.58;1.38;;;;;;;17.08;79.88;99111.75;3555155;40;20049;-77
2021/08/08 00:12:10;;;;;;;3.10;1.30;;;;;;;17.08;80.54;99109.97;3563691;40;20053;-77
2021/08/08 00:14:38;;;;;;;3.83;1.55;;;;;;;17.09;80.22;99116.09;3560608;40;20061;-76
2021/08/08 00:17:08;;;;;;;2.67;1.33;;;;;;;17.08;79.99;99117.00;3557859;40;20064;-77
2021/08/08 00:19:36;;;;;;;4.47;1.23;;;;;;;17.05;80.44;99114.63;3565850;40;20074;-77
2021/08/08 00:22:07;;;;;;;3.50;1.33;;;;;;;17.09;80.59;99129.28;3566340;40;20513;-77
2021/08/08 00:24:35;;;;;;;2.97;1.08;;;;;;;17.03;80.95;99119.16;3548893;40;20112;-76
2021/08/08 00:27:02;;;;;;;3.15;1.40;;;;;;;17.03;80.83;99124.44;3565102;40;20145;-77
2021/08/08 00:29:29;;;;;;;4.47;1.55;;;;;;;17.01;80.76;99126.34;3562503;40;20869;-77
2021/08/08 00:31:56;;;;;;;2.87;1.43;;;;;;;16.95;81.30;99118.91;3563196;40;20078;-77
2021/08/08 00:34:23;;;;;;;3.10;1.40;;;;;;;16.98;80.64;99123.94;3563320;40;20111;-77
2021/08/08 00:36:54;;;;;;;4.43;1.30;;;;;;;16.96;80.84;99123.22;3541876;40;20453;-76
2021/08/08 00:39:23;;;;;;;2.90;1.20;;;;;;;16.96;81.29;99139.03;3570522;40;20163;-77
2021/08/08 00:41:55;;;;;;;4.82;1.60;;;;;;;16.94;81.23;99133.03;3560008;40;20061;-77
2021/08/08 00:44:23;;;;;;;3.28;1.30;;;;;;;16.93;81.18;99133.97;3560867;40;20066;-77
2021/08/08 00:46:54;;;;;;;4.10;1.48;;;;;;;16.91;81.08;99142.00;3569376;40;20426;-76
2021/08/08 00:49:26;;;;;;;3.75;1.42;;;;;;;16.91;80.97;99138.53;3550111;40;20477;-77
2021/08/08 00:51:54;;;;;;;3.08;1.20;;;;;;;16.87;81.03;99130.00;3558710;40;20139;-77
2021/08/08 00:54:25;;;;;;;2.90;1.10;;;;;;;16.89;81.18;99137.81;3564545;40;20057;-77
2021/08/08 00:56:56;;;;;;;2.83;1.20;;;;;;;16.91;81.05;99147.28;3574385;40;20045;-77
2021/08/08 00:59:24;;;;;;;4.65;1.13;;;;;;;16.90;80.67;99139.50;3551047;40;20138;-77
2021/08/08 01:01:53;;;;;;;;;;;;;;;16.95;81.69;99146.09;3568594;40;20068;-77
2021/08/08 01:04:33;;;;;;;3.42;1.48;;;;;;;16.93;80.83;99144.53;3549110;40;19937;-77
2021/08/08 01:07:20;;;;;;;2.15;0.80;;;;;;;16.93;81.31;99145.38;3563880;40;20069;-77
2021/08/08 01:09:53;;;;;;;2.95;1.10;;;;;;;16.91;80.98;99151.72;3559274;40;20067;-76
2021/08/08 01:12:21;;;;;;;2.90;1.02;;;;;;;16.88;80.83;99136.09;3557219;40;20057;-76
2021/08/08 01:14:51;;;;;;;3.15;1.30;;;;;;;16.89;80.67;99143.09;3574414;40;20090;-77
2021/08/08 01:17:22;;;;;;;2.53;1.10;;;;;;;16.90;81.11;99136.84;3565383;40;20089;-77
2021/08/08 01:20:03;;;;;;;2.22;1.10;;;;;;;16.93;81.01;99144.53;3569046;40;20053;-77
2021/08/08 01:22:51;;;;;;;3.35;1.05;;;;;;;16.94;81.25;99147.06;3571108;40;20101;-76
2021/08/08 01:25:22;;;;;;;2.22;1.08;;;;;;;16.87;80.56;99145.81;3559128;40;20065;-76
2021/08/08 01:27:53;;;;;;;2.38;0.98;;;;;;;16.91;81.00;99151.72;3573714;40;20061;-77
2021/08/08 01:30:25;;;;;;;2.88;1.35;;;;;;;16.89;80.71;99151.84;3576387;40;20065;-76
2021/08/08 01:33:01;;;;;;;2.65;1.20;;;;;;;16.89;80.85;99141.28;3565709;40;20327;-76
2021/08/08 01:35:29;;;;;;;2.88;1.00;;;;;;;16.92;80.61;99158.66;3561425;40;20057;-77
2021/08/08 01:37:56;;;;;;;1.60;0.90;;;;;;;16.90;80.93;99155.31;3562803;40;20100;-76
2021/08/08 01:40:28;;;;;;;2.42;1.05;;;;;;;16.95;81.06;99163.72;3577050;40;20059;-76
2021/08/08 01:43:01;;;;;;;2.13;0.88;;;;;;;16.93;81.12;99155.06;3558619;40;20082;-77
2021/08/08 01:45:30;;;;;;;3.35;1.23;;;;;;;16.85;80.68;99148.56;3567605;40;20808;-76
2021/08/08 01:48:03;;;;;;;2.15;0.90;;;;;;;16.95;80.94;99161.09;3558175;40;20088;-77
2021/08/08 01:50:33;;;;;;;4.78;1.38;;;;;;;16.91;80.87;99155.19;3555182;40;20407;-77
2021/08/08 01:53:07;;;;;;;2.40;1.00;;;;;;;16.92;80.68;99164.78;3577556;40;20060;-76
2021/08/08 01:55:35;;;;;;;3.30;1.00;;;;;;;16.91;81.30;99168.38;3562012;40;20413;-77
2021/08/08 01:58:05;;;;;;;2.42;0.98;;;;;;;16.92;81.56;99174.50;3553093;40;20073;-77
2021/08/08 02:00:35;;;;;;;2.35;0.73;;;;;;;16.91;81.50;99167.53;3560283;40;20067;-77
2021/08/08 02:03:12;;;;;;;2.88;1.20;;;;;;;16.91;81.06;99168.38;3548872;40;20086;-76
2021/08/08 02:05:49;;;;;;;3.42;1.30;;;;;;;16.89;81.00;99159.75;3559270;40;20060;-77
2021/08/08 02:08:20;;;;;;;1.98;0.90;;;;;;;16.93;80.71;99168.25;3568814;40;20135;-76
2021/08/08 02:11:01;;;;;;;2.75;1.20;;;;;;;16.90;81.28;99176.41;3560405;40;20068;-76
2021/08/08 02:13:38;;;;;;;3.80;1.48;;;;;;;16.86;81.10;99165.22;3551903;40;20102;-77
2021/08/08 02:16:15;;;;;;;4.18;1.40;;;;;;;16.88;81.46;99167.75;3560807;40;20068;-77
2021/08/08 02:18:42;;;;;;;2.38;1.15;;;;;;;16.82;81.20;99164.59;3558538;40;20100;-76
2021/08/08 02:21:14;;;;;;;2.72;1.20;;;;;;;16.84;81.46;99181.19;3561553;40;20057;-77
2021/08/08 02:23:42;;;;;;;2.35;1.15;;;;;;;16.79;81.09;99164.84;3569956;40;20061;-77
2021/08/08 02:26:18;;;;;;;3.45;1.33;;;;;;;16.78;81.37;99157.91;3565859;40;20173;-77
2021/08/08 02:28:49;;;;;;;2.25;1.10;;;;;;;16.74;81.28;99169.63;3553845;40;20052;-77
2021/08/08 02:31:18;;;;;;;2.88;1.17;;;;;;;16.72;81.17;99174.13;3566638;40;20055;-77
2021/08/08 02:33:46;;;;;;;4.28;1.38;;;;;;;16.70;81.13;99159.38;3561508;40;20061;-77
2021/08/08 02:36:14;;;;;;;2.15;1.13;;;;;;;16.73;81.22;99181.13;3568256;40;20077;-76
2021/08/08 02:38:47;;;;;;;3.75;1.35;;;;;;;16.70;81.01;99170.75;3550283;40;20061;-77
2021/08/08 02:41:19;;;;;;;4.45;1.33;;;;;;;16.72;81.78;99176.78;3567516;40;20073;-77
2021/08/08 02:43:47;;;;;;;3.15;1.40;;;;;;;16.69;81.13;99190.16;3547384;40;20073;-77
2021/08/08 02:46:14;;;;;;;3.47;1.10;;;;;;;16.66;81.46;99176.34;3566727;40;20338;-77
2021/08/08 02:48:41;;;;;;;3.17;1.30;;;;;;;16.67;81.43;99184.13;3543034;40;20085;-77
2021/08/08 02:51:12;;;;;;;2.17;1.13;;;;;;;16.67;80.92;99194.69;3568479;40;20407;-77
2021/08/08 02:53:41;;;;;;;2.95;1.30;;;;;;;16.67;81.46;99186.78;3582157;40;20058;-76
2021/08/08 02:56:09;;;;;;;2.22;1.00;;;;;;;16.66;81.56;99190.38;3567759;40;20049;-77
2021/08/08 02:58:35;;;;;;;3.38;1.05;;;;;;;16.65;81.44;99193.13;3568811;40;20053;-77
2021/08/08 03:01:06;;;;;;;4.47;1.10;;;;;;;16.65;81.58;99190.50;3558205;40;20430;-77
2021/08/08 03:03:34;;;;;;;3.00;1.15;;;;;;;16.62;81.40;99178.34;3565689;40;20079;-76
2021/08/08 03:06:01;;;;;;;2.90;1.15;;;;;;;16.68;81.28;99193.75;3576197;40;20073;-77
2021/08/08 03:08:48;;;;;;;1.95;0.90;;;;;;;16.64;81.14;99184.38;3563482;40;20532;-76
2021/08/08 03:11:15;;;;;;;2.25;0.85;;;;;;;16.69;81.25;99200.72;3566625;40;20104;-76
2021/08/08 03:13:44;;;;;;;2.30;1.00;;;;;;;16.73;81.11;99202.22;3565680;40;20061;-77
2021/08/08 03:16:17;;;;;;;1.92;0.95;;;;;;;16.70;81.43;99191.84;3549391;40;20057;-77
2021/08/08 03:18:46;;;;;;;4.85;1.05;;;;;;;16.73;81.00;99193.47;3564638;40;20140;-76
2021/08/08 03:21:13;;;;;;;2.05;0.80;;;;;;;16.72;80.94;99189.94;3554537;40;20064;-77
2021/08/08 03:23:41;;;;;;;2.17;1.03;;;;;;;16.72;81.24;99200.50;3568593;40;20303;-76
2021/08/08 03:26:08;;;;;;;1.42;0.70;;;;;;;16.74;80.92;99201.25;3545236;40;20057;-77
2021/08/08 03:28:38;;;;;;;1.45;0.70;;;;;;;16.74;80.93;99198.63;3576681;40;20053;-77
2021/08/08 03:31:06;;;;;;;2.00;0.97;;;;;;;16.76;80.94;99206.41;3567833;40;20054;-77
2021/08/08 03:33:38;;;;;;;1.67;0.80;;;;;;;16.76;80.67;99212.50;3559780;40;20060;-77
2021/08/08 03:36:07;;;;;;;0.90;0.50;;;;;;;16.74;80.94;99209.16;3563556;40;20077;-76
2021/08/08 03:38:35;;;;;;;1.10;0.55;;;;;;;16.75;80.63;99226.66;3564425;40;20460;-77
2021/08/08 03:41:02;;;;;;;2.03;0.57;;;;;;;16.72;80.52;99211.03;3561428;40;20073;-77
2021/08/08 03:43:29;;;;;;;1.27;0.70;;;;;;;16.71;80.63;99212.00;3564194;40;20045;-77
2021/08/08 03:46:03;;;;;;;0.60;0.50;;;;;;;16.73;80.78;99206.63;3548184;40;20139;-76
2021/08/08 03:48:31;;;;;;;0.65;0.40;;;;;;;16.73;80.63;99218.03;3568360;40;20058;-77
2021/08/08 03:51:02;;;;;;;0.80;0.45;;;;;;;16.76;80.91;99204.59;3568076;40;20053;-76
2021/08/08 03:53:37;;;;;;;1.50;0.50;;;;;;;16.79;81.06;99216.75;3561107;40;20080;-77
2021/08/08 03:56:05;;;;;;;0.90;0.52;;;;;;;16.70;80.45;99212.94;3566417;40;20303;-77
2021/08/08 03:58:31;;;;;;;0.63;0.40;;;;;;;16.77;80.38;99214.19;3556820;40;20441;-77
2021/08/08 04:01:03;;;;;;;0.77;0.50;;;;;;;16.78;80.69;99217.69;3563890;40;20061;-77
2021/08/08 04:03:35;;;;;;;1.00;0.60;;;;;;;16.76;80.98;99217.78;3567953;40;20053;-76
2021/08/08 04:06:06;;;;;;;1.40;0.57;;;;;;;16.77;80.34;99214.19;3573818;40;20058;-77
2021/08/08 04:08:34;;;;;;;0.60;0.45;;;;;;;16.78;80.80;99221.16;3571454;40;20144;-76
2021/08/08 04:11:14;;;;;;;0.90;0.60;;;;;;;16.82;80.95;99227.03;3570126;40;20065;-77
2021/08/08 04:13:44;;;;;;;1.98;0.50;;;;;;;16.79;80.48;99222.84;3546441;40;20631;-76
2021/08/08 04:16:12;;;;;;;1.30;0.50;;;;;;;16.73;80.67;99215.38;3565612;40;20081;-77
2021/08/08 04:18:39;;;;;;;1.15;0.60;;;;;;;16.77;80.46;99227.38;3557642;40;20058;-76
2021/08/08 04:21:07;;;;;;;0.90;0.55;;;;;;;16.77;80.34;99216.81;3567716;40;20085;-77
2021/08/08 04:23:35;;;;;;;2.85;0.70;;;;;;;16.76;80.68;99217.78;3561865;40;20065;-76
2021/08/08 04:26:05;;;;;;;;;;;;;;;16.86;82.10;99229.34;3565376;40;20059;-76
2021/08/08 04:28:39;;;;;;;1.00;0.47;;;;;;;16.79;80.54;99230.75;3557056;40;20201;-77
2021/08/08 04:31:09;;;;;;;2.22;1.17;;;;;;;16.85;80.68;99238.22;3549754;40;20060;-76
2021/08/08 04:33:39;;;;;;;2.15;0.70;;;;;;;16.80;80.11;99229.81;3573581;40;20069;-76
2021/08/08 04:36:08;;;;;;;4.57;1.15;;;;;;;16.79;80.25;99238.66;3564358;40;20069;-77
2021/08/08 04:38:39;;;;;;;1.50;0.80;;;;;;;16.81;79.96;99231.47;3563061;40;20045;-77
2021/08/08 04:41:07;;;;;;;2.08;0.70;;;;;;;16.81;80.40;99242.03;3563248;40;20058;-76
2021/08/08 04:43:35;;;;;;;3.10;0.77;;;;;;;16.77;80.27;99230.00;3560498;40;20159;-77
2021/08/08 04:46:02;;;;;;;2.42;0.80;;;;;;;16.76;80.17;99233.59;3572341;40;20056;-77
2021/08/08 04:48:29;;;;;;;2.33;0.90;;;;;;;16.75;79.86;99242.47;3566580;40;20143;-77
2021/08/08 04:51:01;;;;;;;3.33;0.90;;;;;;;16.76;80.02;99238.88;3552064;40;20080;-76
2021/08/08 04:53:30;;;;;;;2.37;0.67;;;;;;;16.80;80.54;99240.34;3569662;40;20049;-77
2021/08/08 04:56:00;;;;;;;1.65;0.55;;;;;;;16.72;80.02;99237.41;3557159;40;20275;-77
2021/08/08 04:58:35;;;;;;;2.43;0.82;;;;;;;16.78;79.84;99242.25;1116355;40;10022760;-77
2021/08/08 05:01:02;;;;;;;1.83;0.85;;;;;;;16.76;80.04;99241.50;3306948;40;10000986;-77
2021/08/08 05:03:32;;;;;;;;;;;;;;;16.88;81.80;99257.41;3570686;40;20155;-77
2021/08/08 05:06:00;;;;;;;1.88;0.60;;;;;;;16.74;79.79;99256.59;3571522;40;20366;-77
2021/08/08 05:08:27;;;;;;;;;;;;;;;16.88;81.58;99273.22;3559608;40;20061;-77
2021/08/08 05:10:54;;;;;;;1.05;0.57;;;;;;;16.74;80.12;99261.88;3573068;40;20424;-77
2021/08/08 05:13:28;;;;;;;1.80;0.70;;;;;;;16.80;80.46;99271.97;3572616;40;20432;-77
2021/08/08 05:15:57;;;;;;;1.17;0.43;;;;;;;16.77;80.03;99276.63;3562513;40;20054;-76
2021/08/08 05:18:24;;;;;;;4.03;0.47;;;;;;;16.74;80.34;99277.69;3567446;40;20443;-77
2021/08/08 05:20:52;;;;;;;1.30;0.40;;;;;;;16.78;80.20;99288.88;3562698;40;20509;-77
2021/08/08 05:23:22;;;;;;;0.63;0.35;;;;;;;16.76;79.95;99282.84;3564384;40;20085;-77
2021/08/08 05:25:49;;;;;;;0.45;0.35;;;;;;;16.70;80.02;99286.72;3558249;40;20093;-77
2021/08/08 05:28:16;;;;;;;1.05;0.40;;;;;;;16.70;79.76;99281.47;3574723;40;20112;-76
2021/08/08 05:30:43;;;;;;;0.68;0.40;;;;;;;16.70;79.97;99291.16;3561964;40;20048;-76
2021/08/08 05:33:11;;;;;;;0.82;0.32;;;;;;;16.65;79.81;99277.47;3570561;40;20116;-76
2021/08/08 05:35:40;;;;;;;0.90;0.50;;;;;;;16.68;79.84;99299.19;3557994;40;20054;-77
2021/08/08 05:38:09;;;;;;;0.52;0.20;;;;;;;16.66;80.21;99303.72;3562201;40;20053;-77
2021/08/08 05:40:38;;;;;;;0.98;0.47;;;;;;;16.70;80.32;99301.72;3566861;40;20105;-76
2021/08/08 05:43:07;;;;;;;1.10;0.30;;;;;;;16.67;80.16;99302.75;3562539;40;20131;-77
2021/08/08 05:45:36;;;;;;;0.38;0.32;;;;;;;16.69;80.46;99297.41;3546117;40;20322;-77
2021/08/08 05:48:04;;;;;;;0.80;0.32;;;;;;;16.72;80.41;99311.22;3562846;40;20046;-76
2021/08/08 05:50:31;;;;;;;0.38;0.30;;;;;;;16.69;80.02;99303.50;3559786;40;20057;-77
2021/08/08 05:53:00;;;;;;;0.65;0.30;;;;;;;16.69;79.80;99306.13;3571303;40;20307;-77
2021/08/08 05:55:28;;;;;;;1.45;0.50;;;;;;;16.72;80.53;99307.72;3567039;40;20052;-76
2021/08/08 05:57:56;;;;;;;0.75;0.30;;;;;;;16.71;79.99;99316.56;3564178;40;20087;-77
2021/08/08 06:00:28;;;;;;;0.40;0.20;;;;;;;16.75;80.01;99321.56;3578140;40;20139;-77
2021/08/08 06:03:11;;;;;;;0.60;0.30;;;;;;;16.77;80.73;99330.19;3550682;40;20080;-77
2021/08/08 06:05:42;;;;;;;1.35;0.30;;;;;;;16.76;80.30;99333.78;3557513;40;20058;-77
2021/08/08 06:08:10;;;;;;;0.30;0.30;;;;;;;16.73;79.80;99352.47;3565041;40;20045;-76
2021/08/08 06:10:39;;;;;;;1.00;0.30;;;;;;;16.69;80.24;99336.94;3567406;40;20148;-76
2021/08/08 06:13:13;;;;;;;0.65;0.28;;;;;;;16.70;80.05;99343.88;3561582;40;20056;-77
2021/08/08 06:15:43;;;;;;;1.52;0.40;;;;;;;16.70;80.24;99338.63;3576667;40;20430;-77
2021/08/08 06:18:13;;;;;;;1.02;0.40;;;;;;;16.70;80.43;99344.72;3565401;40;20064;-76
2021/08/08 06:20:39;;;;;;;1.77;0.43;;;;;;;16.64;79.82;99341.69;3557247;40;20100;-77
2021/08/08 06:23:08;;;;;;;5.70;0.70;;;;;;;16.63;79.98;99343.47;3564617;40;20080;-77
2021/08/08 06:25:36;;;;;;;1.92;0.50;;;;;;;16.67;80.25;99354.63;3561502;40;20057;-76
2021/08/08 06:28:03;;;;;;;1.45;0.45;;;;;;;16.66;79.97;99347.69;3566025;40;20049;-77
2021/08/08 06:30:33;;;;;;;0.60;0.30;;;;;;;16.69;80.04;99348.31;3573530;40;20056;-77
2021/08/08 06:32:59;;;;;;;2.17;0.63;;;;;;;16.69;79.79;99352.75;3560209;40;20063;-76
2021/08/08 06:35:27;;;;;;;0.90;0.43;;;;;;;16.69;79.88;99343.03;3563720;40;20141;-77
2021/08/08 06:37:55;;;;;;;2.78;0.47;;;;;;;16.72;79.91;99363.94;3545261;40;20318;-76
2021/08/08 06:40:22;;;;;;;2.08;0.63;;;;;;;16.71;79.67;99356.09;3575135;40;20126;-77
2021/08/08 06:43:02;;;;;;;1.65;0.75;;;;;;;16.76;80.54;99365.41;3552666;40;20076;-77
2021/08/08 06:45:33;;;;;;;3.00;1.00;;;;;;;16.76;79.68;99373.31;3560944;40;20415;-77
2021/08/08 06:48:04;;;;;;;5.60;0.60;;;;;;;16.77;79.65;99372.38;3567469;40;20064;-77
2021/08/08 06:50:32;;;;;;;1.55;0.50;;;;;;;16.77;79.57;99371.53;3560476;40;20057;-77
2021/08/08 06:53:01;;;;;;;0.95;0.40;;;;;;;16.83;79.59;99379.88;3558362;40;20072;-76
2021/08/08 06:55:28;;;;;;;0.93;0.50;;;;;;;16.77;79.58;99375.00;3564691;40;20066;-76
2021/08/08 06:57:56;;;;;;;1.00;0.50;;;;;;;16.80;79.62;99387.97;3572466;40;20045;-77
2021/08/08 07:00:24;;;;;;;1.20;0.60;;;;;;;16.83;79.30;99390.41;3567355;40;20085;-77
2021/08/08 07:03:09;;;;;;;1.33;0.55;;;;;;;16.84;79.12;99392.09;3561315;40;20162;-76
2021/08/08 07:05:40;;;;;;;1.92;0.80;;;;;;;16.85;79.85;99396.41;3568480;40;20110;-76
2021/08/08 07:08:07;;;;;;;0.57;0.47;;;;;;;16.89;79.30;99396.22;3563604;40;20081;-76
2021/08/08 07:10:39;;;;;;;;;;;;;;;16.98;81.60;99406.09;3557909;40;20347;-77
2021/08/08 07:13:06;;;;;;;1.58;0.60;;;;;;;16.95;79.04;99416.88;3556907;40;20037;-77
2021/08/08 07:15:57;;;;;;;1.42;0.60;;;;;;;17.03;81.44;99415.41;3574846;40;20056;-76
2021/08/08 07:18:26;;;;;;;1.13;0.60;;;;;;;16.98;79.54;99406.09;3575957;40;20146;-76
2021/08/08 07:20:58;;;;;;;0.85;0.40;;;;;;;17.05;79.79;99410.00;3558362;40;20061;-77
2021/08/08 07:23:25;;;;;;;2.70;0.68;;;;;;;17.05;78.97;99417.94;3573077;40;20529;-77
2021/08/08 07:25:53;;;;;;;;;;;;;;;17.17;81.52;99422.31;3567832;40;20092;-77
2021/08/08 07:28:21;;;;;;;1.25;0.52;;;;;;;17.12;79.82;99425.28;3561146;40;19944;-77
2021/08/08 07:30:50;;;;;;;2.13;0.90;;;;;;;17.18;79.86;99434.56;3575003;40;20053;-77
2021/08/08 07:33:17;;;;;;;0.75;0.40;;;;;;;17.16;79.85;99433.84;3562653;40;20099;-76
2021/08/08 07:35:48;;;;;;;1.63;0.55;;;;;;;17.21;79.84;99422.97;3555845;40;20049;-76
2021/08/08 07:38:15;;;;;;;1.58;0.80;;;;;;;17.20;79.50;99432.69;3573502;40;20058;-77
2021/08/08 07:40:45;;;;;;;1.50;0.70;;;;;;;17.24;79.51;99433.31;3572247;40;20056;-77
2021/08/08 07:43:12;;;;;;;3.10;0.80;;;;;;;17.23;78.97;99443.00;3552567;40;20056;-76
2021/08/08 07:45:39;;;;;;;1.45;0.70;;;;;;;17.24;79.12;99444.72;3570331;40;20059;-77
2021/08/08 07:48:06;;;;;;;1.42;0.88;;;;;;;17.25;78.74;99450.81;3567929;40;20056;-77
2021/08/08 07:50:34;;;;;;;2.00;0.80;;;;;;;17.19;79.24;99436.28;3562550;40;20079;-77
2021/08/08 07:53:02;;;;;;;1.88;0.95;;;;;;;17.25;79.08;99456.09;3568253;40;20048;-76
2021/08/08 07:55:30;;;;;;;2.22;0.90;;;;;;;17.22;78.59;99462.41;3571352;40;20400;-77
2021/08/08 07:57:58;;;;;;;2.58;0.85;;;;;;;17.17;78.74;99459.25;3551191;40;20077;-77
2021/08/08 08:00:25;;;;;;;2.65;0.77;;;;;;;17.18;79.09;99460.94;3565221;40;20056;-76
2021/08/08 08:02:59;;;;;;;1.25;0.70;;;;;;;17.16;78.84;99483.13;3557189;40;20907;-77
2021/08/08 08:05:28;;;;;;;3.15;1.08;;;;;;;17.17;79.37;99480.38;3567679;40;20527;-77
2021/08/08 08:07:59;;;;;;;1.92;1.00;;;;;;;17.15;79.32;99479.63;3571536;40;20067;-77
2021/08/08 08:10:30;;;;;;;2.85;0.80;;;;;;;17.06;78.16;99472.34;3574258;40;20061;-77
2021/08/08 08:12:57;;;;;;;1.58;0.80;;;;;;;17.02;78.52;99460.31;3563350;40;20044;-77
2021/08/08 08:15:25;;;;;;;1.05;0.60;;;;;;;17.01;79.07;99487.66;3559845;40;20060;-76
2021/08/08 08:17:55;;;;;;;1.88;1.00;;;;;;;16.98;78.66;99485.22;3561552;40;20138;-77
2021/08/08 08:20:23;;;;;;;1.95;1.15;;;;;;;16.98;78.93;99490.50;3559270;40;20055;-77
2021/08/08 08:22:51;;;;;;;4.07;0.73;;;;;;;16.91;79.00;99492.72;3574963;40;20395;-76
2021/08/08 08:25:27;;;;;;;3.22;1.00;;;;;;;16.92;80.00;99501.47;3556071;40;20053;-77
2021/08/08 08:27:54;;;;;;;4.15;0.95;;;;;;;16.86;79.42;99490.38;3548660;40;20067;-77
2021/08/08 08:30:21;;;;;;;2.20;0.75;;;;;;;16.87;78.74;99488.59;3570711;40;20817;-77
2021/08/08 08:32:49;;;;;;;3.28;1.05;;;;;;;16.90;79.22;99493.66;3552575;40;20105;-77
2021/08/08 08:35:27;;;;;;;2.35;0.60;;;;;;;16.95;78.99;99522.38;3558807;40;20072;-76
2021/08/08 08:37:54;;;;;;;4.63;1.10;;;;;;;16.98;78.93;99506.31;3573772;40;20072;-77
2021/08/08 08:40:21;;;;;;;3.63;0.95;;;;;;;16.98;79.06;99494.00;3550861;40;20487;-77
2021/08/08 08:42:51;;;;;;;2.95;1.40;;;;;;;17.11;78.56;99512.44;3565193;40;20053;-77
2021/08/08 08:45:18;;;;;;;3.47;1.20;;;;;;;17.11;78.19;99512.44;3551179;40;20060;-77
2021/08/08 08:47:48;;;;;;;3.70;1.20;;;;;;;17.22;77.84;99522.25;3572061;40;20100;-76
2021/08/08 08:50:17;;;;;;;6.47;1.52;;;;;;;17.21;77.25;99529.34;3557392;40;20323;-77
2021/08/08 08:52:45;;;;;;;5.22;1.60;;;;;;;17.28;76.92;99520.03;3574458;40;20157;-77
2021/08/08 08:55:14;;;;;;;3.58;1.50;;;;;;;17.29;76.50;99513.81;3549978;40;20061;-77
2021/08/08 08:57:43;;;;;;;4.10;1.50;;;;;;;17.32;76.80;99537.34;3573268;40;20146;-77
2021/08/08 09:00:11;;;;;;;4.22;1.67;;;;;;;17.34;75.53;99530.19;3573115;40;20938;-77
2021/08/08 09:02:41;;;;;;;4.85;1.50;;;;;;;17.33;75.39;99536.38;3571923;40;20052;-76
2021/08/08 09:05:09;;;;;;;5.72;2.20;;;;;;;17.31;75.09;99538.31;3551608;40;20063;-77
2021/08/08 09:07:38;;;;;;;4.38;1.88;;;;;;;17.24;74.95;99531.78;3566121;40;20053;-77
2021/08/08 09:10:13;;;;;;;6.10;1.77;;;;;;;17.31;76.21;99550.66;3559788;40;20127;-77
2021/08/08 09:12:43;;;;;;;5.68;1.83;;;;;;;17.21;75.18;99550.44;3567272;40;20061;-77
2021/08/08 09:15:11;;;;;;;5.80;2.08;;;;;;;17.19;74.12;99547.06;3564689;40;20464;-77
2021/08/08 09:17:48;;;;;;;4.88;1.85;;;;;;;17.16;74.35;99557.81;3567889;40;20417;-77
2021/08/08 09:20:16;;;;;;;6.15;2.17;;;;;;;17.11;74.04;99559.94;3564943;40;20421;-78
2021/08/08 09:22:56;;;;;;;6.18;2.00;;;;;;;17.14;76.25;99574.72;3563647;40;20060;-78
2021/08/08 09:25:26;;;;;;;8.07;2.63;;;;;;;17.03;74.02;99556.94;3566260;40;20067;-77
2021/08/08 09:28:05;;;;;;;6.85;2.40;;;;;;;17.10;76.41;99558.25;3571809;40;20131;-76
2021/08/08 09:30:39;;;;;;;4.30;1.85;;;;;;;17.09;75.66;99572.38;3549039;40;20053;-77
2021/08/08 09:33:10;;;;;;;7.75;2.60;;;;;;;17.09;75.03;99562.69;3551606;40;20411;-78
2021/08/08 09:35:41;;;;;;;5.25;1.90;;;;;;;17.14;76.12;99567.66;3559673;40;20413;-77
2021/08/08 09:38:11;;;;;;;5.25;1.88;;;;;;;17.16;75.56;99571.00;3554045;40;20158;-77
2021/08/08 09:40:40;;;;;;;7.38;2.95;;;;;;;17.26;74.66;99574.72;3560839;40;20109;-77
2021/08/08 09:43:08;;;;;;;12.27;2.83;;;;;;;17.27;74.21;99573.75;3560320;40;20162;-77
2021/08/08 09:45:42;;;;;;;6.22;2.30;;;;;;;17.38;74.44;99580.94;3563910;40;20067;-76
2021/08/08 09:48:12;;;;;;;8.25;2.30;;;;;;;17.46;74.22;99578.63;3555667;40;20445;-76
2021/08/08 09:50:42;;;;;;;9.70;2.42;;;;;;;17.56;74.79;99592.03;3564266;40;20180;-76
2021/08/08 09:53:16;;;;;;;9.85;2.55;;;;;;;17.77;75.79;99595.84;3556704;40;20499;-76
2021/08/08 09:55:43;;;;;;;8.00;2.85;;;;;;;17.84;72.80;99591.84;3546069;40;20046;-76
2021/08/08 09:58:10;;;;;;;6.25;2.60;;;;;;;18.00;73.05;99601.31;3563973;40;20053;-74
2021/08/08 10:00:40;;;;;;;6.93;2.53;;;;;;;18.16;72.03;99607.19;3544640;40;20320;-75
2021/08/08 10:03:11;;;;;;;6.40;2.10;;;;;;;18.30;72.99;99596.47;3559353;40;20364;-76
2021/08/08 10:05:42;;;;;;;6.68;2.60;;;;;;;18.48;72.39;99607.50;3563342;40;20053;-75
2021/08/08 10:08:17;;;;;;;5.53;2.00;;;;;;;18.72;74.27;99604.91;3547395;40;20065;-76
2021/08/08 10:10:46;;;;;;;6.28;2.50;;;;;;;18.99;70.79;99601.16;3548504;40;20085;-75
2021/08/08 10:13:31;;;;;;;7.50;2.25;;;;;;;19.37;75.77;99625.56;3558101;40;20054;-76
2021/08/08 10:15:59;;;;;;;6.30;2.35;;;;;;;19.57;69.52;99623.22;3552343;40;20085;-77
2021/08/08 10:18:44;;;;;;;5.38;2.33;;;;;;;19.87;71.86;99630.56;3545168;40;20057;-76
2021/08/08 10:21:12;;;;;;;8.13;2.40;;;;;;;19.98;65.93;99625.31;3548337;40;20628;-76
2021/08/08 10:23:39;;;;;;;6.30;2.30;;;;;;;20.12;66.08;99625.06;3549070;40;20058;-76
2021/08/08 10:26:08;;;;;;;5.57;2.30;;;;;;;20.31;64.68;99629.72;3553237;40;20061;-76
2021/08/08 10:28:35;;;;;;;5.07;2.00;;;;;;;20.39;64.72;99626.47;3563021;40;20121;-76
2021/08/08 10:31:04;;;;;;;7.32;1.90;;;;;;;20.52;64.74;99636.94;3568704;40;20069;-76
2021/08/08 10:33:42;;;;;;;3.83;1.80;;;;;;;20.62;69.62;99621.97;3567152;40;20389;-75
2021/08/08 10:36:36;;;;;;;6.53;2.13;;;;;;;20.79;70.54;99644.47;3559910;40;20401;-78
2021/08/08 10:39:15;;;;;;;6.35;1.90;;;;;;;20.87;69.38;99631.41;3573019;40;20064;-78
2021/08/08 10:42:03;;;;;;;5.93;2.22;;;;;;;20.96;69.75;99642.09;3556525;40;20702;-78
2021/08/08 10:44:44;;;;;;;8.75;2.00;;;;;;;20.95;67.70;99642.25;3571189;40;20427;-78
2021/08/08 10:47:24;;;;;;;6.25;2.00;;;;;;;20.95;65.20;99648.38;3553990;40;20444;-78
2021/08/08 10:49:51;;;;;;;4.00;1.55;;;;;;;20.80;61.36;99644.34;3561204;40;20052;-78
2021/08/08 10:52:18;;;;;;;5.00;1.67;;;;;;;20.81;60.77;99646.03;3567872;40;20045;-78
2021/08/08 10:54:46;;;;;;;;;;;;;;;20.91;68.99;99659.38;3579614;40;20064;-79
2021/08/08 10:57:17;;;;;;;4.45;1.73;;;;;;;20.83;63.51;99651.19;3566958;40;20483;-78
2021/08/08 10:59:52;;;;;;;6.05;1.90;;;;;;;20.84;64.25;99660.88;3579319;40;20350;-79
2021/08/08 11:02:29;;;;;;;7.65;1.95;;;;;;;20.83;63.07;99652.03;3562473;40;20513;-78
2021/08/08 11:04:56;;;;;;;3.53;1.60;;;;;;;20.81;61.77;99648.69;3562578;40;20069;-78
2021/08/08 11:07:29;;;;;;;3.45;1.55;;;;;;;20.99;63.23;99663.09;3572182;40;20844;-78
2021/08/08 11:09:59;;;;;;;7.35;1.92;;;;;;;21.16;62.06;99656.38;3559197;40;20033;-78
2021/08/08 11:12:37;;;;;;;4.38;1.38;;;;;;;21.50;64.64;99667.72;3560146;40;20069;-78
2021/08/08 11:15:08;;;;;;;5.00;1.50;;;;;;;21.80;60.06;99671.38;3550998;40;20057;-79
2021/08/08 11:17:36;;;;;;;4.57;1.65;;;;;;;22.10;58.04;99664.38;3570705;40;20061;-78
2021/08/08 11:20:05;;;;;;;4.60;1.80;;;;;;;22.42;57.86;99670.41;3560820;40;20056;-78
2021/08/08 11:22:32;;;;;;;4.80;1.48;;;;;;;22.69;55.55;99663.59;3572316;40;20067;-78
2021/08/08 11:25:14;;;;;;;3.58;1.30;;;;;;;23.09;61.97;99660.03;3573515;40;20614;-78
2021/08/08 11:27:43;;;;;;;3.42;1.42;;;;;;;23.28;53.51;99662.69;3559269;40;20056;-78
2021/08/08 11:30:13;;;;;;;4.60;1.40;;;;;;;23.50;55.32;99667.69;3563005;40;20055;-78
2021/08/08 11:32:41;;;;;;;4.53;1.33;;;;;;;23.70;53.16;99668.53;3572302;40;20104;-78
2021/08/08 11:35:12;;;;;;;4.70;1.40;;;;;;;23.85;54.56;99652.09;3570834;40;20142;-77
2021/08/08 11:37:49;;;;;;;4.88;1.40;;;;;;;24.16;57.25;99680.16;3564630;40;20065;-78
2021/08/08 11:40:20;;;;;;;4.65;1.60;;;;;;;24.26;51.36;99678.31;3559292;40;20110;-78
2021/08/08 11:42:53;;;;;;;4.43;1.40;;;;;;;24.39;50.58;99688.69;3572936;40;20073;-78
2021/08/08 11:45:31;;;;;;;2.85;1.10;;;;;;;24.61;55.33;99683.91;3556120;40;20059;-78
2021/08/08 11:47:58;;;;;;;5.10;1.30;;;;;;;24.70;50.04;99677.69;3562503;40;20068;-78
2021/08/08 11:50:28;;;;;;;;;;;;;;;25.09;61.06;99680.94;3573499;40;20056;-78